Dakar 2012 7ème étape

Dakar 2012 Argentine/Chili/Perou

Source : http://dakar.sport.francetv.fr/tous-les-classements

samedi 7 janvier : Liaison : 154 km Spécial : 419 km

Classement de la 7ème étape Moto - Copiapó - Copiapó

RangNuméroPilote/EquipageEquipeMarque - ModèleTempsRetard
1 001 COMA Marc KTM MRW RALLY DAKAR EAM KTM - 450 cc 03:51:35
2 002 DESPRES Cyril TEAM RED BULL KTM KTM - 450cc Rally 03:53:38 00:02:03
3 007 GONCALVES Paulo HUSQVARNA RALLYE TEAM BY SPEEDBRAIN Husqvarna - Rally 450 RR 03:54:24 00:02:49
4 003 RODRIGUES Helder TEAM YAMAHA RACING YAMAHA - WRF 450 03:55:21 00:03:46
5 020 FARRES GUELL Gerard BORDONE-FERRARI KTM - 450 RALLY REPLICA 03:58:25 00:06:50
6 006 ULLEVALSETER Pal Anders TEAM ULLEVALSETER KTM - 450 R 03:59:42 00:08:07
7 014 CASTEU David TEAM YAMAHA RACING YAMAHA - 450 WRF Rally 04:00:18 00:08:43
8 008 FARIA Ruben TEAM RED BULL KTM KTM - 450 CC RALLY 04:00:23 00:08:48
9 015 VERHOEVEN Frans SHERCO RALLY RAID - CROCOAVENTURES SHERCO - SR 450 04:00:59 00:09:24
10 010 VILADOMS Jordi BORDONE-FERRARI KTM - Rally Replica 04:03:01 00:11:26
11 005 PEDRERO GARCIA Juan KTM MRW RALLY DAKAR EAM KTM - 450cc Rally 04:03:22 00:11:47
12 032 SVITKO Stefan HANT LOGOMOTION SLOVAKIA KTM - 450 RR 04:03:31 00:11:56
13 023 BARREDA BORT Joan HUSQVARNA RALLYE TEAM BY SPEEDBRAIN HUSQVARNA - Rally 450 RR 04:05:20 00:13:45
14 028 ZANOL FELIPE KTM BRASIL KTM - 450 Replica 04:06:08 00:14:33
15 034 BOTTURI ALESSANDRO BORDONE-FERRARI KTM - 450 RALLY REPLICA 04:07:40 00:16:05
16 016 PAIN Olivier TEAM YAMAHA RACING YAMAHA - 450 YZF Rally 04:11:09 00:19:34
17 025 GOUET Daniel TAMARUGAL HONDA RACING XC RALLY TEAM HONDA - CRF 450 X 04:12:01 00:20:26
18 035 CECI Paolo BORDONE-FERRARI KTM - 450 RR 04:12:11 00:20:36
19 017 CZACHOR Jacek ORLEN TEAM KTM - 450 Replica 04:15:43 00:24:08
20 018 KNUIMAN Henk WIM MOTORS DAKAR KTM - 450 REPLICA 04:19:05 00:27:30
21 012 PELLICER Jose Manuel HUSQVARNA RALLYE TEAM BY SPEEDBRAIN HUSQVARNA - Rally 450 RR 04:19:15 00:27:40
22 004 LOPEZ Francisco GIOFIL APRILIA APRILIA - 450 RXV TUAREG 04:21:58 00:30:23
23 053 RODRIGUEZ Claudio TAMARUGAL HONDA RACING XC RALLY TEAM HONDA - CRF 450 X 04:22:23 00:30:48
24 050 SALVATIERRA Juan Carlos GHR HONDA HONDA - CRF450X 04:25:15 00:33:40
25 039 GYENES Emanuel VECTRA RACING KTM - 450 RR 04:26:57 00:35:22
26 064 SCHRÖDER DANIEL MEMO TOURS - ALFIE COX TEAM KTM - 450cc 04:28:28 00:36:53
27 029 BERGLUND Thomas HUSABERG RALLY TEAM SCANDINAVIA HUSABERG - FE 450 04:29:19 00:37:44
28 024 STANOVNIK Miran TEAM SUGAWARA KTM - 450 R 04:29:28 00:37:53
29 042 PROHENS Jaime TAMARUGAL HONDA RACING XC RALLY TEAM HONDA - CRF 450X RALLY 04:29:57 00:38:22
30 021 AUBERT JOHNNY KTM RALLY FACTORY TEAM KTM - 450 RALLY 04:32:44 00:41:09
31 066 LORMAND Etienne ROUSSILL'HOTEL - HFP YAMAHA - 450 WRF 04:33:24 00:41:49
32 144 CURTIS Darryl MEMO TOURS - ALFIE COX TEAM KTM - 450 Replica 04:33:48 00:42:13
33 033 BETHYS Thierry YAMAHA - 450 YZF Rally 04:33:48 00:42:13
34 110 BIRCH Christopher MEMO TOURS - ALFIE COX TEAM KTM - 450 Replica 04:36:35 00:45:00
35 089 NASCIMENTO DENISIO PETROBRAS LUBRAX HONDA - CRF 450 04:38:17 00:46:42
36 041 PROHENS Felipe TAMARUGAL HONDA RACING XC RALLY TEAM HONDA (Transformada) - CRF450X RALLY 04:40:48 00:49:13
37 040 SERRADORI Mathieu KTM - 450 Rally 04:42:28 00:50:53
38 043 PISANO Michael MP CONCEPT KTM - 450 RR 04:43:49 00:52:14
39 068 BARROT David POWERBIKE YAMAHA IPONE YAMAHA - 450 IZF RALLY 04:45:16 00:53:41
40 067 BALOOSHI MOHAMMED RED BULL KTM - 450 RR 04:47:21 00:55:46
41 057 WILLEMSEN Daniel TEAM HONDA EUROPE HONDA - CRF 450 X 04:47:48 00:56:13
42 026 RODRIGUES FILHO Jose helio HUSQVARNA RALLYE TEAM BY SPEEDBRAIN HUQSVARNA - RALLY 450 RR 04:48:11 00:56:36
43 060 WATT Stanley FRONT ROW GB / CRECENT KTM KTM - 450 RR 04:49:31 00:57:56
44 145 NUTTALL Dean MEMO TOURS - ALFIE COX TEAM KTM - 450 Replica 04:49:40 00:58:05
45 046 BIANCHI PRATA Pedro TEAM BIANCHI PRATA / VODAFONE HUSQUARNA - TE449 RALLY 04:50:35 00:59:00
46 181 RIOS FELIPE KTM PERU RALLY TEAM KTM - Rally Replica 04:51:06 00:59:31
47 184 SAKIR SENKALAYCI TURKISH TEAM KTM - 450 RALLY EXC 04:51:08 00:59:33
48 045 SANZ PLA-GILIBERT Eulalia GAS GAS GAS - GAS - EC 450 04:51:24 00:59:49
49 030 GUASCH Marc GAS GAS GAS - GAS - EC 450 04:51:49 01:00:14
50 051 ARREDONDO Francisco TEAM GUATEMALA KTM - 450 RALLY 04:54:10 01:02:35
51 062 SCHWARZ David HUSABERG RALLYE RACING AUSTRALIA HUSABERG - FE450 04:54:26 01:02:51
52 069 PAYEN Hugo YAMAHA - 450 WRF 04:54:37 01:03:02
53 056 MENARD Jean-Christophe HFP YAMAHA - 450 YZF 04:55:17 01:03:42
54 071 BUTUZA Marcel BOANO HONDA - CRE F 450 X 04:55:18 01:03:43
55 086 MUNK Jes X-RAGE RACING KTM - 450 04:55:58 01:04:23
56 048 LIEFHEBBER Hans-jos KTM - 450 RR 04:57:07 01:05:32
57 082 GUINDANI Vincent HFP YAMAHA - YZR 450 04:58:08 01:06:33
58 058 PUERTAS HERRERA Miguel HIMOINSA DAKAR TEAM YAMAHA - 450 WR 04:58:13 01:06:38
59 075 BUSIN Pablo MOTO TEAM BY ELF YAMAHA - 450 WR 04:59:15 01:07:40
60 168 GUIRAL DEMIAN AVANT MOTOS HONDA GENUINE OIL HONDA - CRF 450X 05:00:52 01:09:17
61 049 DABROWSKI Marek ORLEN TEAM KTM - 450 RR 05:01:24 01:09:49
62 154 GAJDOSECH ROBERTO ANTONIO ATUEL MOTOS YAMAHA - WR 450 05:03:22 01:11:47
63 148 GOMEZ Mauricio PACO GOMEZ RALLY TEAM YAMAHA - WR 450 05:03:42 01:12:07
64 061 MATTOS Dimas BRASIL MOTO TOUR KTM - 450 RR 05:04:42 01:13:07
65 185 SANCHEZ MARCELO TEAM RPM KAWASAKI KAWASAKI - KLX 450 R 05:07:20 01:15:45
66 077 PICCO Franco FRANCO PICCO RACING YAMAHA - WRF 450 05:08:39 01:17:04
67 076 PEDERZOLI Claudio ON-OFF RACING TEAM YAMAHA - WR 450 05:10:43 01:19:08
68 138 LECOQ SEBASTIEN TEAM PERFORMANCE ENDURO YAMAHA - 450 YZFE 05:12:43 01:21:08
69 183 RODRIGUEZ Pablo HONDA RACING ARGENTINA HONDA - CRF450X 05:13:35 01:22:00
70 159 CHITTICK Jamie GHR HONDA HONDA - CRF450X 05:16:13 01:24:38
71 072 GOUNON SERGE EMS KTM - 450 RR 05:16:21 01:24:46
72 027 PIZZOLITO Javier HONDA RACING ARGENTINA HONDA - CRF 450X 05:17:04 01:25:29
73 149 CIPKA DUSAN SLOVAKIA TURBOTEAM ZATKO BMW - G450X 05:17:44 01:26:09
74 092 HAMARD Stephane REUNION RALLYE RAID KTM - 450 RR 05:18:39 01:27:04
75 098 BLONDEAU CHRISTOPHE TEAM FRANROC YAMAHA - YZF 450 05:18:44 01:27:09
76 087 MEILLAT Christophe C.M PROMO KAWASAKI - KLX 450 R 05:19:42 01:28:07
77 065 LAZARD Laurent MOTO TEAM BY ELF YAMAHA - WR 450 05:20:39 01:29:04
78 122 PALANTE Eric WIM MOTORS RACING DIVISION KTM - 450 RR FREVA 05:24:57 01:33:22
79 073 BONY BRUNO EMS KTM - 450 RR 05:27:29 01:35:54
80 059 CIOTTI Filippo FRANCO PICCO RACING RIEJU - MRT 450 05:27:54 01:36:19
81 165 MULDER GEERT TEAM HONDA EUROPE HONDA - CFR 450 X 05:28:50 01:37:15
82 091 TONETTI NICOLA TEAM BOANO HONDA - CRF 450 X 05:32:08 01:40:33
83 116 GEOFFROY Christophe TB RACING HONDA - F 450 XE 05:40:06 01:48:31

Classement général Moto

RangNuméroPilote/EquipageEquipeMarque - ModèleTempsRetard
1 002 DESPRES Cyril TEAM RED BULL KTM KTM - 450cc Rally 18:12:38
2 001 COMA Marc KTM MRW RALLY DAKAR EAM KTM - 450 cc 18:20:26 00:07:48
3 003 RODRIGUES Helder TEAM YAMAHA RACING YAMAHA - WRF 450 19:02:17 00:49:39
4 007 GONCALVES Paulo HUSQVARNA RALLYE TEAM BY SPEEDBRAIN Husqvarna - Rally 450 RR 19:08:11 00:55:33
5 014 CASTEU David TEAM YAMAHA RACING YAMAHA - 450 WRF Rally 19:18:16 01:05:38
6 010 VILADOMS Jordi BORDONE-FERRARI KTM - Rally Replica 19:20:18 01:07:40
7 020 FARRES GUELL Gerard BORDONE-FERRARI KTM - 450 RALLY REPLICA 19:20:38 01:08:00
8 032 SVITKO Stefan HANT LOGOMOTION SLOVAKIA KTM - 450 RR 19:29:57 01:17:19
9 004 LOPEZ Francisco GIOFIL APRILIA APRILIA - 450 RXV TUAREG 19:29:58 01:17:20
10 005 PEDRERO GARCIA Juan KTM MRW RALLY DAKAR EAM KTM - 450cc Rally 19:36:26 01:23:48
11 016 PAIN Olivier TEAM YAMAHA RACING YAMAHA - 450 YZF Rally 19:44:27 01:31:49
12 034 BOTTURI ALESSANDRO BORDONE-FERRARI KTM - 450 RALLY REPLICA 19:46:48 01:34:10
13 006 ULLEVALSETER Pal Anders TEAM ULLEVALSETER KTM - 450 R 19:53:41 01:41:03
14 025 GOUET Daniel TAMARUGAL HONDA RACING XC RALLY TEAM HONDA - CRF 450 X 20:07:30 01:54:52
15 008 FARIA Ruben TEAM RED BULL KTM KTM - 450 CC RALLY 20:13:17 02:00:39
16 028 ZANOL FELIPE KTM BRASIL KTM - 450 Replica 20:13:46 02:01:08
17 017 CZACHOR Jacek ORLEN TEAM KTM - 450 Replica 20:30:15 02:17:37
18 035 CECI Paolo BORDONE-FERRARI KTM - 450 RR 20:49:40 02:37:02
19 026 RODRIGUES FILHO Jose helio HUSQVARNA RALLYE TEAM BY SPEEDBRAIN HUQSVARNA - RALLY 450 RR 20:51:28 02:38:50
20 018 KNUIMAN Henk WIM MOTORS DAKAR KTM - 450 REPLICA 20:55:04 02:42:26
21 039 GYENES Emanuel VECTRA RACING KTM - 450 RR 20:57:50 02:45:12
22 027 PIZZOLITO Javier HONDA RACING ARGENTINA HONDA - CRF 450X 20:58:45 02:46:07
23 024 STANOVNIK Miran TEAM SUGAWARA KTM - 450 R 21:00:45 02:48:07
24 021 AUBERT JOHNNY KTM RALLY FACTORY TEAM KTM - 450 RALLY 21:00:47 02:48:09
25 043 PISANO Michael MP CONCEPT KTM - 450 RR 21:22:26 03:09:48
26 015 VERHOEVEN Frans SHERCO RALLY RAID - CROCOAVENTURES SHERCO - SR 450 21:29:22 03:16:44
27 082 GUINDANI Vincent HFP YAMAHA - YZR 450 21:30:31 03:17:53
28 040 SERRADORI Mathieu KTM - 450 Rally 21:34:53 03:22:15
29 023 BARREDA BORT Joan HUSQVARNA RALLYE TEAM BY SPEEDBRAIN HUSQVARNA - Rally 450 RR 21:37:46 03:25:08
30 012 PELLICER Jose Manuel HUSQVARNA RALLYE TEAM BY SPEEDBRAIN HUSQVARNA - Rally 450 RR 21:39:11 03:26:33
31 033 BETHYS Thierry YAMAHA - 450 YZF Rally 21:40:48 03:28:10
32 064 SCHRÖDER DANIEL MEMO TOURS - ALFIE COX TEAM KTM - 450cc 22:04:12 03:51:34
33 144 CURTIS Darryl MEMO TOURS - ALFIE COX TEAM KTM - 450 Replica 22:23:17 04:10:39
34 048 LIEFHEBBER Hans-jos KTM - 450 RR 22:32:06 04:19:28
35 089 NASCIMENTO DENISIO PETROBRAS LUBRAX HONDA - CRF 450 22:35:33 04:22:55
36 041 PROHENS Felipe TAMARUGAL HONDA RACING XC RALLY TEAM HONDA (Transformada) - CRF450X RALLY 22:36:37 04:23:59
37 042 PROHENS Jaime TAMARUGAL HONDA RACING XC RALLY TEAM HONDA - CRF 450X RALLY 22:37:25 04:24:47
38 049 DABROWSKI Marek ORLEN TEAM KTM - 450 RR 22:38:25 04:25:47
39 066 LORMAND Etienne ROUSSILL'HOTEL - HFP YAMAHA - 450 WRF 23:07:00 04:54:22
40 145 NUTTALL Dean MEMO TOURS - ALFIE COX TEAM KTM - 450 Replica 23:12:16 04:59:38
41 110 BIRCH Christopher MEMO TOURS - ALFIE COX TEAM KTM - 450 Replica 23:31:46 05:19:08
42 060 WATT Stanley FRONT ROW GB / CRECENT KTM KTM - 450 RR 23:32:28 05:19:50
43 053 RODRIGUEZ Claudio TAMARUGAL HONDA RACING XC RALLY TEAM HONDA - CRF 450 X 23:36:49 05:24:11
44 183 RODRIGUEZ Pablo HONDA RACING ARGENTINA HONDA - CRF450X 23:37:39 05:25:01
45 051 ARREDONDO Francisco TEAM GUATEMALA KTM - 450 RALLY 24:12:14 05:59:36
46 086 MUNK Jes X-RAGE RACING KTM - 450 24:20:38 06:08:00
47 081 SUESSE NED ADVRIDER/ NEDURO KTM - 450XCW 24:29:43 06:17:05
48 181 RIOS FELIPE KTM PERU RALLY TEAM KTM - Rally Replica 24:35:36 06:22:58
49 071 BUTUZA Marcel BOANO HONDA - CRE F 450 X 24:37:17 06:24:39
50 184 SAKIR SENKALAYCI TURKISH TEAM KTM - 450 RALLY EXC 24:37:23 06:24:45
51 045 SANZ PLA-GILIBERT Eulalia GAS GAS GAS - GAS - EC 450 24:39:47 06:27:09
52 030 GUASCH Marc GAS GAS GAS - GAS - EC 450 24:40:58 06:28:20
53 067 BALOOSHI MOHAMMED RED BULL KTM - 450 RR 24:41:28 06:28:50
54 058 PUERTAS HERRERA Miguel HIMOINSA DAKAR TEAM YAMAHA - 450 WR 24:41:42 06:29:04
55 062 SCHWARZ David HUSABERG RALLYE RACING AUSTRALIA HUSABERG - FE450 24:43:18 06:30:40
56 057 WILLEMSEN Daniel TEAM HONDA EUROPE HONDA - CRF 450 X 24:46:01 06:33:23
57 046 BIANCHI PRATA Pedro TEAM BIANCHI PRATA / VODAFONE HUSQUARNA - TE449 RALLY 24:47:39 06:35:01
58 138 LECOQ SEBASTIEN TEAM PERFORMANCE ENDURO YAMAHA - 450 YZFE 24:47:56 06:35:18
59 154 GAJDOSECH ROBERTO ANTONIO ATUEL MOTOS YAMAHA - WR 450 24:51:31 06:38:53
60 029 BERGLUND Thomas HUSABERG RALLY TEAM SCANDINAVIA HUSABERG - FE 450 24:56:33 06:43:55
61 185 SANCHEZ MARCELO TEAM RPM KAWASAKI KAWASAKI - KLX 450 R 25:01:50 06:49:12
62 050 SALVATIERRA Juan Carlos GHR HONDA HONDA - CRF450X 25:06:52 06:54:14
63 087 MEILLAT Christophe C.M PROMO KAWASAKI - KLX 450 R 25:19:01 07:06:23
64 061 MATTOS Dimas BRASIL MOTO TOUR KTM - 450 RR 25:20:44 07:08:06
65 148 GOMEZ Mauricio PACO GOMEZ RALLY TEAM YAMAHA - WR 450 25:23:08 07:10:30
66 168 GUIRAL DEMIAN AVANT MOTOS HONDA GENUINE OIL HONDA - CRF 450X 25:30:53 07:18:15
67 077 PICCO Franco FRANCO PICCO RACING YAMAHA - WRF 450 25:36:45 07:24:07
68 075 BUSIN Pablo MOTO TEAM BY ELF YAMAHA - 450 WR 25:38:34 07:25:56
69 065 LAZARD Laurent MOTO TEAM BY ELF YAMAHA - WR 450 25:43:14 07:30:36
70 059 CIOTTI Filippo FRANCO PICCO RACING RIEJU - MRT 450 25:53:59 07:41:21
71 068 BARROT David POWERBIKE YAMAHA IPONE YAMAHA - 450 IZF RALLY 25:54:05 07:41:27
72 092 HAMARD Stephane REUNION RALLYE RAID KTM - 450 RR 26:04:26 07:51:48
73 056 MENARD Jean-Christophe HFP YAMAHA - 450 YZF 26:17:52 08:05:14
74 165 MULDER GEERT TEAM HONDA EUROPE HONDA - CFR 450 X 26:24:13 08:11:35
75 149 CIPKA DUSAN SLOVAKIA TURBOTEAM ZATKO BMW - G450X 26:25:21 08:12:43
76 159 CHITTICK Jamie GHR HONDA HONDA - CRF450X 26:42:01 08:29:23
77 100 VESELY Jan CZECH DAKAR TEAM YAMAHA - WR 450F 26:57:14 08:44:36
78 098 BLONDEAU CHRISTOPHE TEAM FRANROC YAMAHA - YZF 450 27:00:06 08:47:28
79 072 GOUNON SERGE EMS KTM - 450 RR 27:30:06 09:17:28
80 091 TONETTI NICOLA TEAM BOANO HONDA - CRF 450 X 27:42:25 09:29:47
81 122 PALANTE Eric WIM MOTORS RACING DIVISION KTM - 450 RR FREVA 27:45:08 09:32:30
82 069 PAYEN Hugo YAMAHA - 450 WRF 27:49:48 09:37:10
83 164 DEMELCHORI DIEGO TEAM RPM KAWASAKI KAWASAKI - 2009 27:56:26 09:43:48
84 093 GOMEZ Jorge VEMOTOR CANARIAS Husqvarna - 450cc 28:25:40 10:13:02
85 076 PEDERZOLI Claudio ON-OFF RACING TEAM YAMAHA - WR 450 28:29:42 10:17:04
86 074 KOFMAN Erik KTM - 450 RR 28:37:33 10:24:55
87 116 GEOFFROY Christophe TB RACING HONDA - F 450 XE 30:12:59 12:00:21
88 177 VAN GEEL MARCO TEAM HONDA EUROPE HONDA - CFR 450 X 30:31:11 12:18:33
89 174 MARTÍNEZ Paco PACO MARTINEZ KAWASAKI - KX450 30:35:04 12:22:26
90 080 PASCUAL Pablo oscar JINCHENG TEAM JINCHENG - JC450Y 30:42:03 12:29:25
91 107 BODINGER Ronnie HUSABERG FACTORY TEAM HUSABERG - FE 450 31:06:28 12:53:50
92 073 BONY BRUNO EMS KTM - 450 RR 31:09:23 12:56:45
93 150 BELAUSTEGUI Luis FREEDOM RALLY RACING KTM - SX 150 31:16:04 13:03:26
94 099 CHERPIN Pierre KTM - 450 RR 31:43:27 13:30:49
95 176 RAAF Greg MEMO TOURS - ALFIE COX TEAM KTM - 450 Replica 32:02:25 13:49:47
96 102 ALAN Eduardo ELF ARGENTINA Yamaha - WR 450 32:11:07 13:58:29
97 095 MAZET Jean-Claude JCM RALLYE RAID KTM - 450 RR 32:46:21 14:33:43
98 022 DUCLOS Alain GIOFIL APRILIA APRILIA - RXV 4.5 Rally 33:12:15 14:59:37
99 136 IGARIS GINTAUTAS YAMAHA - WR450F 33:13:15 15:00:37
100 158 VELLUTINO Carlo PERUANOS AL DAKAR KTM - 450 EXC 2011 33:14:14 15:01:36
101 104 DE BENEDICTIS NETO Vicente Beta - RR 450 33:22:42 15:10:04
102 178 VAN WOERKUM JAN TEAM HONDA EUROPE HONDA - CFR 450 X 33:40:09 15:27:31
103 131 THEURIOT Herve REVIVAL AVENTURES YAMAHA - 450 WRF 33:40:38 15:28:00
104 109 BUDWEG ARNDT BRASIL MOTO TOUR KTM - 450 RR 33:42:10 15:29:32
105 112 GUYOMARC?H Yannick SCE PERFORMANCE / ASA POMPIERS DE PARIS YAMAHA - WRF 33:43:07 15:30:29
106 090 DIGUIET Gilles KTM - 450 CC 33:43:18 15:30:40
107 151 BEALUSTEGUI Juan Manuel AL LIMITE DAKAR 2012 YAMAHA - WR 450 F 33:49:16 15:36:38
108 085 PENATE MUNOZ Pedro Manuel KH7 VALSEBIKE KTM - 450 35:04:21 16:51:43
109 129 DEPOORTER Philippe WIM MOTORS DAKAR KTM - 450 36:04:59 17:52:21
110 120 ILLANES Rodrigo TARAPACA RALLY TEAM Husqvarna - TE 449 37:43:04 19:30:26
111 094 WEI Guanghui JINCHENG TEAM JINCHENG - JC 450Y 38:21:49 20:09:11
112 111 ESPINASSE SYLVAIN SHERCO RALLY RAID - CROCOAVENTURES SHERCO - SR 450 38:27:49 20:15:11
113 172 LUCCHESE MANUEL HUSABERG FACTORY TEAM HUSABERG - FE 450 RALLY 38:41:38 20:29:00
114 125 ASTORI Gianernesto ABC RALLY ACTION TEAM KTM - 450 RR 38:56:43 20:44:05
115 105 BARRON Jacques PERUANOS AL DAKAR KTM - 450 EXL 39:03:09 20:50:31
116 140 REINIKE MARCO MARCO REINIKE KTM - 450 RALLY REPLICA 40:28:03 22:15:25
117 096 CID DE LA PAZ Pablo PCP ASISTENCIA / MED BETA - RR 450 41:21:19 23:08:41
118 152 TER BEEK RONALD GHR HONDA HONDA - CFR 450 X 41:37:16 23:24:38
119 128 ANO Julio TEAM NORMAND RAID YAMAHA - WRF 450 42:56:00 24:43:22
120 187 YOUNGER TOBIAS DESERT ROSE RACING KTM - 450EXC 64:14:19 46:01:41
121 160 HAMEL ERIC YAMAHA - 450 WRF 67:23:20 49:10:42
122 162 FLAMBERT OLIVIER TEAM AL DESERT YAMAHA - 450 WR 67:37:05 49:24:27
123 142 CAREVIC Andrés INSTITUTO NACIONAL DEL DEPORTE YAMAHA - 450 WR 68:38:07 50:25:29

Créer un site gratuit avec e-monsite - Signaler un contenu illicite sur ce site